sensor_id;sensor_type;location;lat;lon;timestamp;temperature;humidity
4604;DHT22;2314;48.272;11.562;2023-03-05T00:00:46;-0.80;99.90
4604;DHT22;2314;48.272;11.562;2023-03-05T00:03:13;-0.80;99.90
4604;DHT22;2314;48.272;11.562;2023-03-05T00:05:40;-0.80;99.90
4604;DHT22;2314;48.272;11.562;2023-03-05T00:08:08;-0.80;99.90
4604;DHT22;2314;48.272;11.562;2023-03-05T00:10:35;-0.70;99.90
4604;DHT22;2314;48.272;11.562;2023-03-05T00:13:02;-0.70;99.90
4604;DHT22;2314;48.272;11.562;2023-03-05T00:15:29;-0.70;99.90
4604;DHT22;2314;48.272;11.562;2023-03-05T00:17:57;-0.70;99.90
4604;DHT22;2314;48.272;11.562;2023-03-05T00:20:24;-0.70;99.90
4604;DHT22;2314;48.272;11.562;2023-03-05T00:22:51;-0.80;99.90
4604;DHT22;2314;48.272;11.562;2023-03-05T00:25:18;-0.80;99.90
4604;DHT22;2314;48.272;11.562;2023-03-05T00:27:45;-0.80;99.90
4604;DHT22;2314;48.272;11.562;2023-03-05T00:30:13;-0.80;99.90
4604;DHT22;2314;48.272;11.562;2023-03-05T00:32:40;-0.80;99.90
4604;DHT22;2314;48.272;11.562;2023-03-05T00:35:09;-0.90;99.90
4604;DHT22;2314;48.272;11.562;2023-03-05T00:37:37;-0.90;99.90
4604;DHT22;2314;48.272;11.562;2023-03-05T00:40:05;-0.80;99.90
4604;DHT22;2314;48.272;11.562;2023-03-05T00:42:33;-0.80;99.90
4604;DHT22;2314;48.272;11.562;2023-03-05T00:45:03;-0.70;99.90
4604;DHT22;2314;48.272;11.562;2023-03-05T00:47:31;-0.70;99.90
4604;DHT22;2314;48.272;11.562;2023-03-05T00:49:58;-0.70;99.90
4604;DHT22;2314;48.272;11.562;2023-03-05T00:52:27;-0.60;99.90
4604;DHT22;2314;48.272;11.562;2023-03-05T00:54:54;-0.50;99.90
4604;DHT22;2314;48.272;11.562;2023-03-05T00:57:21;-0.50;99.90
4604;DHT22;2314;48.272;11.562;2023-03-05T00:59:48;-0.40;99.90
4604;DHT22;2314;48.272;11.562;2023-03-05T01:02:15;-0.40;99.90
4604;DHT22;2314;48.272;11.562;2023-03-05T01:04:42;-0.40;99.90
4604;DHT22;2314;48.272;11.562;2023-03-05T01:07:11;-0.40;99.90
4604;DHT22;2314;48.272;11.562;2023-03-05T01:09:40;-0.40;99.90
4604;DHT22;2314;48.272;11.562;2023-03-05T01:12:07;-0.30;99.90
4604;DHT22;2314;48.272;11.562;2023-03-05T01:14:34;-0.30;99.90
4604;DHT22;2314;48.272;11.562;2023-03-05T01:17:01;-0.30;99.90
4604;DHT22;2314;48.272;11.562;2023-03-05T01:19:28;-0.20;99.90
4604;DHT22;2314;48.272;11.562;2023-03-05T01:21:55;-0.20;99.90
4604;DHT22;2314;48.272;11.562;2023-03-05T01:24:22;-0.20;99.90
4604;DHT22;2314;48.272;11.562;2023-03-05T01:26:51;-0.20;99.90
4604;DHT22;2314;48.272;11.562;2023-03-05T01:29:18;-0.10;99.90
4604;DHT22;2314;48.272;11.562;2023-03-05T01:31:45;-0.10;99.90
4604;DHT22;2314;48.272;11.562;2023-03-05T01:34:12;-0.10;99.90
4604;DHT22;2314;48.272;11.562;2023-03-05T01:36:39;0.00;99.90
4604;DHT22;2314;48.272;11.562;2023-03-05T01:39:07;-0.10;99.90
4604;DHT22;2314;48.272;11.562;2023-03-05T01:41:34;0.00;99.90
4604;DHT22;2314;48.272;11.562;2023-03-05T01:44:03;0.00;99.90
4604;DHT22;2314;48.272;11.562;2023-03-05T01:46:32;0.00;99.90
4604;DHT22;2314;48.272;11.562;2023-03-05T01:49:22;0.00;99.90
4604;DHT22;2314;48.272;11.562;2023-03-05T01:52:02;0.00;99.90
4604;DHT22;2314;48.272;11.562;2023-03-05T01:54:35;0.00;99.90
4604;DHT22;2314;48.272;11.562;2023-03-05T01:57:08;0.10;99.90
4604;DHT22;2314;48.272;11.562;2023-03-05T01:59:39;0.00;99.90
4604;DHT22;2314;48.272;11.562;2023-03-05T02:02:07;0.10;99.90
4604;DHT22;2314;48.272;11.562;2023-03-05T02:04:38;0.10;99.90
4604;DHT22;2314;48.272;11.562;2023-03-05T02:07:09;0.00;99.90
4604;DHT22;2314;48.272;11.562;2023-03-05T02:09:37;0.00;99.90
4604;DHT22;2314;48.272;11.562;2023-03-05T02:12:09;0.00;99.90
4604;DHT22;2314;48.272;11.562;2023-03-05T02:14:39;0.00;99.90
4604;DHT22;2314;48.272;11.562;2023-03-05T02:17:07;0.10;99.90
4604;DHT22;2314;48.272;11.562;2023-03-05T02:19:49;0.10;99.90
4604;DHT22;2314;48.272;11.562;2023-03-05T02:22:21;0.10;99.90
4604;DHT22;2314;48.272;11.562;2023-03-05T02:24:49;0.00;99.90
4604;DHT22;2314;48.272;11.562;2023-03-05T02:27:17;0.10;99.90
4604;DHT22;2314;48.272;11.562;2023-03-05T02:29:47;0.10;99.90
4604;DHT22;2314;48.272;11.562;2023-03-05T02:32:14;0.10;99.90
4604;DHT22;2314;48.272;11.562;2023-03-05T02:34:41;0.10;99.90
4604;DHT22;2314;48.272;11.562;2023-03-05T02:37:08;0.10;99.90
4604;DHT22;2314;48.272;11.562;2023-03-05T02:39:36;0.20;99.90
4604;DHT22;2314;48.272;11.562;2023-03-05T02:42:04;0.20;99.90
4604;DHT22;2314;48.272;11.562;2023-03-05T02:44:32;0.10;99.90
4604;DHT22;2314;48.272;11.562;2023-03-05T02:46:59;0.20;99.90
4604;DHT22;2314;48.272;11.562;2023-03-05T02:49:27;0.20;99.90
4604;DHT22;2314;48.272;11.562;2023-03-05T02:51:54;0.20;99.90
4604;DHT22;2314;48.272;11.562;2023-03-05T02:54:21;0.20;99.90
4604;DHT22;2314;48.272;11.562;2023-03-05T02:56:50;0.20;99.90
4604;DHT22;2314;48.272;11.562;2023-03-05T02:59:20;0.20;99.90
4604;DHT22;2314;48.272;11.562;2023-03-05T03:01:47;0.30;99.90
4604;DHT22;2314;48.272;11.562;2023-03-05T03:04:14;0.30;99.90
4604;DHT22;2314;48.272;11.562;2023-03-05T03:06:41;0.30;99.90
4604;DHT22;2314;48.272;11.562;2023-03-05T03:09:08;0.30;99.90
4604;DHT22;2314;48.272;11.562;2023-03-05T03:11:35;0.30;99.90
4604;DHT22;2314;48.272;11.562;2023-03-05T03:14:03;0.30;99.90
4604;DHT22;2314;48.272;11.562;2023-03-05T03:16:33;0.30;99.90
4604;DHT22;2314;48.272;11.562;2023-03-05T03:19:00;0.30;99.90
4604;DHT22;2314;48.272;11.562;2023-03-05T03:21:27;0.40;99.90
4604;DHT22;2314;48.272;11.562;2023-03-05T03:23:54;0.40;99.90
4604;DHT22;2314;48.272;11.562;2023-03-05T03:26:21;0.40;99.90
4604;DHT22;2314;48.272;11.562;2023-03-05T03:28:48;0.40;99.90
4604;DHT22;2314;48.272;11.562;2023-03-05T03:31:18;0.40;99.90
4604;DHT22;2314;48.272;11.562;2023-03-05T03:33:45;0.40;99.90
4604;DHT22;2314;48.272;11.562;2023-03-05T03:36:12;0.40;99.90
4604;DHT22;2314;48.272;11.562;2023-03-05T03:38:39;0.50;99.90
4604;DHT22;2314;48.272;11.562;2023-03-05T03:41:07;0.50;99.90
4604;DHT22;2314;48.272;11.562;2023-03-05T03:43:35;0.60;99.90
4604;DHT22;2314;48.272;11.562;2023-03-05T03:46:04;0.60;99.90
4604;DHT22;2314;48.272;11.562;2023-03-05T03:48:32;0.60;99.90
4604;DHT22;2314;48.272;11.562;2023-03-05T03:51:03;0.60;99.90
4604;DHT22;2314;48.272;11.562;2023-03-05T03:53:31;0.60;99.90
4604;DHT22;2314;48.272;11.562;2023-03-05T03:55:59;0.60;99.90
4604;DHT22;2314;48.272;11.562;2023-03-05T03:58:26;0.60;99.90
4604;DHT22;2314;48.272;11.562;2023-03-05T04:00:53;0.60;99.90
4604;DHT22;2314;48.272;11.562;2023-03-05T04:03:20;0.70;99.90
4604;DHT22;2314;48.272;11.562;2023-03-05T04:05:48;0.70;99.90
4604;DHT22;2314;48.272;11.562;2023-03-05T04:08:15;0.70;99.90
4604;DHT22;2314;48.272;11.562;2023-03-05T04:10:42;0.70;99.90
4604;DHT22;2314;48.272;11.562;2023-03-05T04:13:09;0.70;99.90
4604;DHT22;2314;48.272;11.562;2023-03-05T04:15:36;0.70;99.90
4604;DHT22;2314;48.272;11.562;2023-03-05T04:18:08;0.70;99.90
4604;DHT22;2314;48.272;11.562;2023-03-05T04:20:34;0.70;99.90
4604;DHT22;2314;48.272;11.562;2023-03-05T04:23:03;0.60;99.90
4604;DHT22;2314;48.272;11.562;2023-03-05T04:25:30;0.70;99.90
4604;DHT22;2314;48.272;11.562;2023-03-05T04:27:57;0.70;99.90
4604;DHT22;2314;48.272;11.562;2023-03-05T04:30:24;0.70;99.90
4604;DHT22;2314;48.272;11.562;2023-03-05T04:32:51;0.70;99.90
4604;DHT22;2314;48.272;11.562;2023-03-05T04:35:18;0.60;99.90
4604;DHT22;2314;48.272;11.562;2023-03-05T04:37:45;0.60;99.90
4604;DHT22;2314;48.272;11.562;2023-03-05T04:40:14;0.60;99.90
4604;DHT22;2314;48.272;11.562;2023-03-05T04:42:42;0.60;99.90
4604;DHT22;2314;48.272;11.562;2023-03-05T04:45:10;0.60;99.90
4604;DHT22;2314;48.272;11.562;2023-03-05T04:47:37;0.60;99.90
4604;DHT22;2314;48.272;11.562;2023-03-05T04:50:06;0.60;99.90
4604;DHT22;2314;48.272;11.562;2023-03-05T04:52:37;0.50;99.90
4604;DHT22;2314;48.272;11.562;2023-03-05T04:55:05;0.60;99.90
4604;DHT22;2314;48.272;11.562;2023-03-05T04:57:35;0.60;99.90
4604;DHT22;2314;48.272;11.562;2023-03-05T05:00:02;0.60;99.90
4604;DHT22;2314;48.272;11.562;2023-03-05T05:02:31;0.60;99.90
4604;DHT22;2314;48.272;11.562;2023-03-05T05:04:59;0.60;99.90
4604;DHT22;2314;48.272;11.562;2023-03-05T05:07:26;0.60;99.90
4604;DHT22;2314;48.272;11.562;2023-03-05T05:09:54;0.60;99.90
4604;DHT22;2314;48.272;11.562;2023-03-05T05:12:21;0.60;99.90
4604;DHT22;2314;48.272;11.562;2023-03-05T05:14:49;0.60;99.90
4604;DHT22;2314;48.272;11.562;2023-03-05T05:17:19;0.60;99.90
4604;DHT22;2314;48.272;11.562;2023-03-05T05:19:47;0.60;99.90
4604;DHT22;2314;48.272;11.562;2023-03-05T05:22:14;0.60;99.90
4604;DHT22;2314;48.272;11.562;2023-03-05T05:24:41;0.60;99.90
4604;DHT22;2314;48.272;11.562;2023-03-05T05:27:08;0.60;99.90
4604;DHT22;2314;48.272;11.562;2023-03-05T05:29:35;0.60;99.90
4604;DHT22;2314;48.272;11.562;2023-03-05T05:32:05;0.60;99.90
4604;DHT22;2314;48.272;11.562;2023-03-05T05:34:32;0.60;99.90
4604;DHT22;2314;48.272;11.562;2023-03-05T05:36:59;0.60;99.90
4604;DHT22;2314;48.272;11.562;2023-03-05T05:39:27;0.60;99.90
4604;DHT22;2314;48.272;11.562;2023-03-05T05:41:54;0.60;99.90
4604;DHT22;2314;48.272;11.562;2023-03-05T05:44:21;0.60;99.90
4604;DHT22;2314;48.272;11.562;2023-03-05T05:46:48;0.70;99.90
4604;DHT22;2314;48.272;11.562;2023-03-05T05:49:17;0.70;99.90
4604;DHT22;2314;48.272;11.562;2023-03-05T05:51:44;0.70;99.90
4604;DHT22;2314;48.272;11.562;2023-03-05T05:54:12;0.70;99.90
4604;DHT22;2314;48.272;11.562;2023-03-05T05:56:40;0.80;99.90
4604;DHT22;2314;48.272;11.562;2023-03-05T05:59:07;0.80;99.90
4604;DHT22;2314;48.272;11.562;2023-03-05T06:01:36;0.80;99.90
4604;DHT22;2314;48.272;11.562;2023-03-05T06:04:04;0.70;99.90
4604;DHT22;2314;48.272;11.562;2023-03-05T06:06:32;0.80;99.90
4604;DHT22;2314;48.272;11.562;2023-03-05T06:09:00;0.80;99.90
4604;DHT22;2314;48.272;11.562;2023-03-05T06:11:28;0.80;99.90
4604;DHT22;2314;48.272;11.562;2023-03-05T06:13:55;0.80;99.90
4604;DHT22;2314;48.272;11.562;2023-03-05T06:16:23;0.80;99.90
4604;DHT22;2314;48.272;11.562;2023-03-05T06:18:51;0.90;99.90
4604;DHT22;2314;48.272;11.562;2023-03-05T06:21:20;0.90;99.90
4604;DHT22;2314;48.272;11.562;2023-03-05T06:23:49;0.90;99.90
4604;DHT22;2314;48.272;11.562;2023-03-05T06:26:18;0.90;99.90
4604;DHT22;2314;48.272;11.562;2023-03-05T06:28:46;1.00;99.90
4604;DHT22;2314;48.272;11.562;2023-03-05T06:31:14;1.00;99.90
4604;DHT22;2314;48.272;11.562;2023-03-05T06:33:43;1.00;99.90
4604;DHT22;2314;48.272;11.562;2023-03-05T06:36:12;1.00;99.90
4604;DHT22;2314;48.272;11.562;2023-03-05T06:38:41;1.00;99.90
4604;DHT22;2314;48.272;11.562;2023-03-05T06:41:11;1.10;99.90
4604;DHT22;2314;48.272;11.562;2023-03-05T06:43:41;1.10;99.90
4604;DHT22;2314;48.272;11.562;2023-03-05T06:46:11;1.10;99.90
4604;DHT22;2314;48.272;11.562;2023-03-05T06:48:40;1.10;99.90
4604;DHT22;2314;48.272;11.562;2023-03-05T06:51:12;1.10;99.90
4604;DHT22;2314;48.272;11.562;2023-03-05T06:53:40;1.10;99.90
4604;DHT22;2314;48.272;11.562;2023-03-05T06:56:08;1.20;99.90
4604;DHT22;2314;48.272;11.562;2023-03-05T06:58:38;1.20;99.90
4604;DHT22;2314;48.272;11.562;2023-03-05T07:01:06;1.20;99.90
4604;DHT22;2314;48.272;11.562;2023-03-05T07:03:33;1.20;99.90
4604;DHT22;2314;48.272;11.562;2023-03-05T07:06:02;1.20;99.90
4604;DHT22;2314;48.272;11.562;2023-03-05T07:08:30;1.30;99.90
4604;DHT22;2314;48.272;11.562;2023-03-05T07:10:58;1.30;99.90
4604;DHT22;2314;48.272;11.562;2023-03-05T07:13:27;1.30;99.90
4604;DHT22;2314;48.272;11.562;2023-03-05T07:15:54;1.30;99.90
4604;DHT22;2314;48.272;11.562;2023-03-05T07:18:21;1.30;99.90
4604;DHT22;2314;48.272;11.562;2023-03-05T07:20:48;1.40;99.90
4604;DHT22;2314;48.272;11.562;2023-03-05T07:23:16;1.50;99.90
4604;DHT22;2314;48.272;11.562;2023-03-05T07:25:43;1.50;99.90
4604;DHT22;2314;48.272;11.562;2023-03-05T07:28:10;1.60;99.90
4604;DHT22;2314;48.272;11.562;2023-03-05T07:30:38;1.60;99.90
4604;DHT22;2314;48.272;11.562;2023-03-05T07:33:05;1.70;99.90
4604;DHT22;2314;48.272;11.562;2023-03-05T07:35:32;1.80;99.90
4604;DHT22;2314;48.272;11.562;2023-03-05T07:37:59;1.80;99.90
4604;DHT22;2314;48.272;11.562;2023-03-05T07:40:26;1.80;99.90
4604;DHT22;2314;48.272;11.562;2023-03-05T07:42:53;1.80;99.90
4604;DHT22;2314;48.272;11.562;2023-03-05T07:45:20;1.70;99.90
4604;DHT22;2314;48.272;11.562;2023-03-05T07:47:48;1.60;99.90
4604;DHT22;2314;48.272;11.562;2023-03-05T07:50:16;1.70;99.90
4604;DHT22;2314;48.272;11.562;2023-03-05T07:52:43;1.70;99.90
4604;DHT22;2314;48.272;11.562;2023-03-05T07:55:10;1.70;99.90
4604;DHT22;2314;48.272;11.562;2023-03-05T07:57:37;1.70;99.90
4604;DHT22;2314;48.272;11.562;2023-03-05T08:00:05;1.80;99.90
4604;DHT22;2314;48.272;11.562;2023-03-05T08:02:33;1.80;99.90
4604;DHT22;2314;48.272;11.562;2023-03-05T08:05:01;1.80;99.90
4604;DHT22;2314;48.272;11.562;2023-03-05T08:07:28;1.80;99.90
4604;DHT22;2314;48.272;11.562;2023-03-05T08:09:55;1.80;99.90
4604;DHT22;2314;48.272;11.562;2023-03-05T08:12:22;1.80;99.90
4604;DHT22;2314;48.272;11.562;2023-03-05T08:14:49;1.90;99.90
4604;DHT22;2314;48.272;11.562;2023-03-05T08:17:16;1.90;99.90
4604;DHT22;2314;48.272;11.562;2023-03-05T08:19:43;1.90;99.90
4604;DHT22;2314;48.272;11.562;2023-03-05T08:22:12;2.00;99.90
4604;DHT22;2314;48.272;11.562;2023-03-05T08:24:40;1.90;99.90
4604;DHT22;2314;48.272;11.562;2023-03-05T08:27:07;2.00;99.90
4604;DHT22;2314;48.272;11.562;2023-03-05T08:29:34;2.10;99.90
4604;DHT22;2314;48.272;11.562;2023-03-05T08:32:01;2.10;99.90
4604;DHT22;2314;48.272;11.562;2023-03-05T08:34:29;2.20;99.90
4604;DHT22;2314;48.272;11.562;2023-03-05T08:36:56;2.20;99.90
4604;DHT22;2314;48.272;11.562;2023-03-05T08:39:24;2.30;99.90
4604;DHT22;2314;48.272;11.562;2023-03-05T08:41:51;2.30;99.90
4604;DHT22;2314;48.272;11.562;2023-03-05T08:44:18;2.30;99.90
4604;DHT22;2314;48.272;11.562;2023-03-05T08:46:45;2.30;99.90
4604;DHT22;2314;48.272;11.562;2023-03-05T08:49:12;2.40;99.90
4604;DHT22;2314;48.272;11.562;2023-03-05T08:51:39;2.30;99.90
4604;DHT22;2314;48.272;11.562;2023-03-05T08:54:06;2.40;99.90
4604;DHT22;2314;48.272;11.562;2023-03-05T08:56:35;2.50;99.90
4604;DHT22;2314;48.272;11.562;2023-03-05T08:59:03;2.50;99.90
4604;DHT22;2314;48.272;11.562;2023-03-05T09:01:31;2.60;99.90
4604;DHT22;2314;48.272;11.562;2023-03-05T09:03:58;2.60;99.90
4604;DHT22;2314;48.272;11.562;2023-03-05T09:06:26;2.50;99.90
4604;DHT22;2314;48.272;11.562;2023-03-05T09:08:53;2.60;99.90
4604;DHT22;2314;48.272;11.562;2023-03-05T09:11:21;2.60;99.90
4604;DHT22;2314;48.272;11.562;2023-03-05T09:13:49;2.70;99.90
4604;DHT22;2314;48.272;11.562;2023-03-05T09:16:18;2.70;99.90
4604;DHT22;2314;48.272;11.562;2023-03-05T09:18:45;2.80;99.90
4604;DHT22;2314;48.272;11.562;2023-03-05T09:21:14;2.80;99.90
4604;DHT22;2314;48.272;11.562;2023-03-05T09:23:43;2.90;99.90
4604;DHT22;2314;48.272;11.562;2023-03-05T09:26:12;3.00;99.90
4604;DHT22;2314;48.272;11.562;2023-03-05T09:28:40;3.00;99.90
4604;DHT22;2314;48.272;11.562;2023-03-05T09:31:08;3.10;99.90
4604;DHT22;2314;48.272;11.562;2023-03-05T09:33:36;3.00;99.90
4604;DHT22;2314;48.272;11.562;2023-03-05T09:36:05;3.10;99.90
4604;DHT22;2314;48.272;11.562;2023-03-05T09:38:42;3.10;99.90
4604;DHT22;2314;48.272;11.562;2023-03-05T09:41:16;3.10;99.90
4604;DHT22;2314;48.272;11.562;2023-03-05T09:43:53;3.10;99.90
4604;DHT22;2314;48.272;11.562;2023-03-05T09:46:35;3.10;99.90
4604;DHT22;2314;48.272;11.562;2023-03-05T09:49:15;3.10;99.90
4604;DHT22;2314;48.272;11.562;2023-03-05T09:51:44;3.10;99.90
4604;DHT22;2314;48.272;11.562;2023-03-05T09:54:16;3.10;99.90
4604;DHT22;2314;48.272;11.562;2023-03-05T09:56:46;3.10;99.90
4604;DHT22;2314;48.272;11.562;2023-03-05T09:59:24;3.10;99.90
4604;DHT22;2314;48.272;11.562;2023-03-05T10:02:02;3.20;99.90
4604;DHT22;2314;48.272;11.562;2023-03-05T10:04:41;3.10;99.90
4604;DHT22;2314;48.272;11.562;2023-03-05T10:07:14;3.10;99.90
4604;DHT22;2314;48.272;11.562;2023-03-05T10:09:45;3.10;99.90
4604;DHT22;2314;48.272;11.562;2023-03-05T10:12:20;3.20;99.90
4604;DHT22;2314;48.272;11.562;2023-03-05T10:14:52;3.20;99.90
4604;DHT22;2314;48.272;11.562;2023-03-05T10:17:42;3.20;99.90
4604;DHT22;2314;48.272;11.562;2023-03-05T10:20:24;3.20;99.90
4604;DHT22;2314;48.272;11.562;2023-03-05T10:23:04;3.30;99.90
4604;DHT22;2314;48.272;11.562;2023-03-05T10:25:58;3.30;99.90
4604;DHT22;2314;48.272;11.562;2023-03-05T10:28:34;3.30;99.90
4604;DHT22;2314;48.272;11.562;2023-03-05T10:31:23;3.30;99.90
4604;DHT22;2314;48.272;11.562;2023-03-05T10:34:26;3.40;99.90
4604;DHT22;2314;48.272;11.562;2023-03-05T10:37:27;3.50;99.90
4604;DHT22;2314;48.272;11.562;2023-03-05T10:40:15;3.50;99.90
4604;DHT22;2314;48.272;11.562;2023-03-05T10:42:52;3.50;99.90
4604;DHT22;2314;48.272;11.562;2023-03-05T10:45:25;3.60;99.90
4604;DHT22;2314;48.272;11.562;2023-03-05T10:47:58;3.60;99.90
4604;DHT22;2314;48.272;11.562;2023-03-05T10:50:34;3.60;99.90
4604;DHT22;2314;48.272;11.562;2023-03-05T10:53:14;3.40;99.90
4604;DHT22;2314;48.272;11.562;2023-03-05T10:55:45;3.40;99.90
4604;DHT22;2314;48.272;11.562;2023-03-05T10:58:14;3.50;99.90
4604;DHT22;2314;48.272;11.562;2023-03-05T11:01:00;3.40;99.90
4604;DHT22;2314;48.272;11.562;2023-03-05T11:03:49;3.40;99.90
4604;DHT22;2314;48.272;11.562;2023-03-05T11:06:35;3.50;99.90
4604;DHT22;2314;48.272;11.562;2023-03-05T11:09:16;3.50;99.90
4604;DHT22;2314;48.272;11.562;2023-03-05T11:12:02;3.50;99.90
4604;DHT22;2314;48.272;11.562;2023-03-05T11:14:34;3.70;99.90
4604;DHT22;2314;48.272;11.562;2023-03-05T11:17:23;3.80;99.90
4604;DHT22;2314;48.272;11.562;2023-03-05T11:20:29;3.70;99.90
4604;DHT22;2314;48.272;11.562;2023-03-05T11:23:07;3.70;99.90
4604;DHT22;2314;48.272;11.562;2023-03-05T11:25:56;3.70;99.90
4604;DHT22;2314;48.272;11.562;2023-03-05T11:28:28;3.70;99.90
4604;DHT22;2314;48.272;11.562;2023-03-05T11:31:00;3.70;99.90
4604;DHT22;2314;48.272;11.562;2023-03-05T11:33:33;3.70;99.90
4604;DHT22;2314;48.272;11.562;2023-03-05T11:36:11;3.80;99.90
4604;DHT22;2314;48.272;11.562;2023-03-05T11:38:50;3.80;99.90
4604;DHT22;2314;48.272;11.562;2023-03-05T11:41:24;3.70;99.90
4604;DHT22;2314;48.272;11.562;2023-03-05T11:43:58;3.80;99.90
4604;DHT22;2314;48.272;11.562;2023-03-05T11:46:28;3.90;99.90
4604;DHT22;2314;48.272;11.562;2023-03-05T11:48:57;3.90;99.90
4604;DHT22;2314;48.272;11.562;2023-03-05T11:51:27;4.00;99.90
4604;DHT22;2314;48.272;11.562;2023-03-05T11:54:06;4.10;99.90
4604;DHT22;2314;48.272;11.562;2023-03-05T11:56:37;4.00;99.90
4604;DHT22;2314;48.272;11.562;2023-03-05T11:59:12;4.00;99.90
4604;DHT22;2314;48.272;11.562;2023-03-05T12:01:45;3.90;99.90
4604;DHT22;2314;48.272;11.562;2023-03-05T12:04:14;3.90;99.90
4604;DHT22;2314;48.272;11.562;2023-03-05T12:06:44;3.90;99.90
4604;DHT22;2314;48.272;11.562;2023-03-05T12:09:20;3.80;99.90
4604;DHT22;2314;48.272;11.562;2023-03-05T12:11:55;3.90;99.90
4604;DHT22;2314;48.272;11.562;2023-03-05T12:14:31;3.90;99.90
4604;DHT22;2314;48.272;11.562;2023-03-05T12:17:06;3.90;99.90
4604;DHT22;2314;48.272;11.562;2023-03-05T12:19:45;3.90;99.90
4604;DHT22;2314;48.272;11.562;2023-03-05T12:22:19;3.90;99.90
4604;DHT22;2314;48.272;11.562;2023-03-05T12:24:49;3.90;99.90
4604;DHT22;2314;48.272;11.562;2023-03-05T12:27:32;3.90;99.90
4604;DHT22;2314;48.272;11.562;2023-03-05T12:30:00;3.80;99.90
4604;DHT22;2314;48.272;11.562;2023-03-05T12:32:57;3.80;99.90
4604;DHT22;2314;48.272;11.562;2023-03-05T12:35:33;3.80;99.90
4604;DHT22;2314;48.272;11.562;2023-03-05T12:38:18;3.80;99.90
4604;DHT22;2314;48.272;11.562;2023-03-05T12:44:19;3.70;99.90
4604;DHT22;2314;48.272;11.562;2023-03-05T12:47:15;3.80;99.90
4604;DHT22;2314;48.272;11.562;2023-03-05T12:49:48;3.80;99.90
4604;DHT22;2314;48.272;11.562;2023-03-05T12:52:25;3.80;99.90
4604;DHT22;2314;48.272;11.562;2023-03-05T12:55:00;3.80;99.90
4604;DHT22;2314;48.272;11.562;2023-03-05T12:57:43;3.90;99.90
4604;DHT22;2314;48.272;11.562;2023-03-05T13:00:15;3.80;99.90
4604;DHT22;2314;48.272;11.562;2023-03-05T13:02:47;3.80;99.90
4604;DHT22;2314;48.272;11.562;2023-03-05T13:05:23;3.80;99.90
4604;DHT22;2314;48.272;11.562;2023-03-05T13:07:52;3.80;99.90
4604;DHT22;2314;48.272;11.562;2023-03-05T13:10:23;3.80;99.90
4604;DHT22;2314;48.272;11.562;2023-03-05T13:12:54;3.80;99.90
4604;DHT22;2314;48.272;11.562;2023-03-05T13:15:25;3.90;99.90
4604;DHT22;2314;48.272;11.562;2023-03-05T13:17:55;4.00;99.90
4604;DHT22;2314;48.272;11.562;2023-03-05T13:20:26;4.00;99.90
4604;DHT22;2314;48.272;11.562;2023-03-05T13:23:14;4.10;99.90
4604;DHT22;2314;48.272;11.562;2023-03-05T13:25:56;4.10;99.90
4604;DHT22;2314;48.272;11.562;2023-03-05T13:28:29;4.00;99.90
4604;DHT22;2314;48.272;11.562;2023-03-05T13:30:59;3.90;99.90
4604;DHT22;2314;48.272;11.562;2023-03-05T13:33:29;3.90;99.90
4604;DHT22;2314;48.272;11.562;2023-03-05T13:35:57;4.00;99.90
4604;DHT22;2314;48.272;11.562;2023-03-05T13:38:28;3.90;99.90
4604;DHT22;2314;48.272;11.562;2023-03-05T13:41:17;3.80;99.90
4604;DHT22;2314;48.272;11.562;2023-03-05T13:43:49;3.80;99.90
4604;DHT22;2314;48.272;11.562;2023-03-05T13:46:28;3.80;99.90
4604;DHT22;2314;48.272;11.562;2023-03-05T13:48:57;3.90;99.90
4604;DHT22;2314;48.272;11.562;2023-03-05T13:51:44;3.90;99.90
4604;DHT22;2314;48.272;11.562;2023-03-05T13:54:13;4.00;99.90
4604;DHT22;2314;48.272;11.562;2023-03-05T13:56:55;4.00;99.90
4604;DHT22;2314;48.272;11.562;2023-03-05T13:59:26;4.00;99.90
4604;DHT22;2314;48.272;11.562;2023-03-05T14:01:56;4.00;99.90
4604;DHT22;2314;48.272;11.562;2023-03-05T14:04:26;4.00;99.90
4604;DHT22;2314;48.272;11.562;2023-03-05T14:06:57;3.90;99.90
4604;DHT22;2314;48.272;11.562;2023-03-05T14:09:27;4.00;99.90
4604;DHT22;2314;48.272;11.562;2023-03-05T14:11:58;3.90;99.90
4604;DHT22;2314;48.272;11.562;2023-03-05T14:14:29;3.90;99.90
4604;DHT22;2314;48.272;11.562;2023-03-05T14:17:31;3.90;99.90
4604;DHT22;2314;48.272;11.562;2023-03-05T14:20:18;3.80;99.90
4604;DHT22;2314;48.272;11.562;2023-03-05T14:22:50;3.70;99.90
4604;DHT22;2314;48.272;11.562;2023-03-05T14:25:27;3.70;99.90
4604;DHT22;2314;48.272;11.562;2023-03-05T14:27:58;3.70;99.90
4604;DHT22;2314;48.272;11.562;2023-03-05T14:30:27;3.70;99.90
4604;DHT22;2314;48.272;11.562;2023-03-05T14:32:56;3.70;99.90
4604;DHT22;2314;48.272;11.562;2023-03-05T14:35:26;3.60;99.90
4604;DHT22;2314;48.272;11.562;2023-03-05T14:37:55;3.60;99.90
4604;DHT22;2314;48.272;11.562;2023-03-05T14:40:27;3.60;99.90
4604;DHT22;2314;48.272;11.562;2023-03-05T14:42:56;3.60;99.90
4604;DHT22;2314;48.272;11.562;2023-03-05T14:45:27;3.50;99.90
4604;DHT22;2314;48.272;11.562;2023-03-05T14:47:57;3.50;99.90
4604;DHT22;2314;48.272;11.562;2023-03-05T14:50:28;3.50;99.90
4604;DHT22;2314;48.272;11.562;2023-03-05T14:52:58;3.50;99.90
4604;DHT22;2314;48.272;11.562;2023-03-05T14:55:29;3.50;99.90
4604;DHT22;2314;48.272;11.562;2023-03-05T14:58:00;3.40;99.90
4604;DHT22;2314;48.272;11.562;2023-03-05T15:00:30;3.50;99.90
4604;DHT22;2314;48.272;11.562;2023-03-05T15:02:57;3.40;99.90
4604;DHT22;2314;48.272;11.562;2023-03-05T15:05:24;3.50;99.90
4604;DHT22;2314;48.272;11.562;2023-03-05T15:07:52;3.40;99.90
4604;DHT22;2314;48.272;11.562;2023-03-05T15:10:21;3.40;99.90
4604;DHT22;2314;48.272;11.562;2023-03-05T15:12:50;3.40;99.90
4604;DHT22;2314;48.272;11.562;2023-03-05T15:15:19;3.40;99.90
4604;DHT22;2314;48.272;11.562;2023-03-05T15:17:49;3.50;99.90
4604;DHT22;2314;48.272;11.562;2023-03-05T15:20:21;3.40;99.90
4604;DHT22;2314;48.272;11.562;2023-03-05T15:22:50;3.50;99.90
4604;DHT22;2314;48.272;11.562;2023-03-05T15:25:18;3.50;99.90
4604;DHT22;2314;48.272;11.562;2023-03-05T15:27:45;3.50;99.90
4604;DHT22;2314;48.272;11.562;2023-03-05T15:30:19;3.40;99.90
4604;DHT22;2314;48.272;11.562;2023-03-05T15:32:50;3.40;99.90
4604;DHT22;2314;48.272;11.562;2023-03-05T15:35:20;3.40;99.90
4604;DHT22;2314;48.272;11.562;2023-03-05T15:37:48;3.40;99.90
4604;DHT22;2314;48.272;11.562;2023-03-05T15:40:15;3.40;99.90
4604;DHT22;2314;48.272;11.562;2023-03-05T15:42:42;3.40;99.90
4604;DHT22;2314;48.272;11.562;2023-03-05T15:45:09;3.30;99.90
4604;DHT22;2314;48.272;11.562;2023-03-05T15:47:36;3.30;99.90
4604;DHT22;2314;48.272;11.562;2023-03-05T15:50:06;3.30;99.90
4604;DHT22;2314;48.272;11.562;2023-03-05T15:52:35;3.20;99.90
4604;DHT22;2314;48.272;11.562;2023-03-05T15:55:02;3.10;99.90
4604;DHT22;2314;48.272;11.562;2023-03-05T15:57:34;3.00;99.90
4604;DHT22;2314;48.272;11.562;2023-03-05T16:00:04;3.00;99.90
4604;DHT22;2314;48.272;11.562;2023-03-05T16:02:32;3.10;99.90
4604;DHT22;2314;48.272;11.562;2023-03-05T16:04:59;3.10;99.90
4604;DHT22;2314;48.272;11.562;2023-03-05T16:07:28;3.10;99.90
4604;DHT22;2314;48.272;11.562;2023-03-05T16:09:56;3.10;99.90
4604;DHT22;2314;48.272;11.562;2023-03-05T16:12:27;3.00;99.90
4604;DHT22;2314;48.272;11.562;2023-03-05T16:14:57;3.00;99.90
4604;DHT22;2314;48.272;11.562;2023-03-05T16:17:24;3.00;99.90
4604;DHT22;2314;48.272;11.562;2023-03-05T16:19:53;3.00;99.90
4604;DHT22;2314;48.272;11.562;2023-03-05T16:22:21;3.00;99.90
4604;DHT22;2314;48.272;11.562;2023-03-05T16:24:50;2.90;99.90